sensor_id;sensor_type;location;lat;lon;timestamp;pressure;altitude;pressure_sealevel;temperature;humidity
19447;BME280;9862;49.462;11.054;2022-07-05T00:01:31;98218.00;;;22.71;53.68
19447;BME280;9862;49.462;11.054;2022-07-05T00:03:58;98212.56;;;22.71;53.57
19447;BME280;9862;49.462;11.054;2022-07-05T00:06:24;98219.94;;;22.66;54.09
19447;BME280;9862;49.462;11.054;2022-07-05T00:08:51;98219.94;;;22.66;54.28
19447;BME280;9862;49.462;11.054;2022-07-05T00:11:19;98214.28;;;22.62;54.90
19447;BME280;9862;49.462;11.054;2022-07-05T00:13:46;98217.00;;;22.57;55.21
19447;BME280;9862;49.462;11.054;2022-07-05T00:16:12;98220.28;;;22.59;55.35
19447;BME280;9862;49.462;11.054;2022-07-05T00:18:39;98224.88;;;22.59;55.76
19447;BME280;9862;49.462;11.054;2022-07-05T00:21:05;98225.75;;;22.49;56.18
19447;BME280;9862;49.462;11.054;2022-07-05T00:23:32;98216.66;;;22.30;56.67
19447;BME280;9862;49.462;11.054;2022-07-05T00:25:59;98222.09;;;22.19;57.51
19447;BME280;9862;49.462;11.054;2022-07-05T00:28:27;98228.09;;;22.16;58.62
19447;BME280;9862;49.462;11.054;2022-07-05T00:30:54;98231.09;;;22.15;58.43
19447;BME280;9862;49.462;11.054;2022-07-05T00:33:20;98231.63;;;22.17;58.12
19447;BME280;9862;49.462;11.054;2022-07-05T00:35:47;98232.19;;;22.09;58.74
19447;BME280;9862;49.462;11.054;2022-07-05T00:38:13;98239.53;;;22.03;59.55
19447;BME280;9862;49.462;11.054;2022-07-05T00:40:42;98228.72;;;21.93;60.15
19447;BME280;9862;49.462;11.054;2022-07-05T00:43:08;98228.72;;;21.93;60.79
19447;BME280;9862;49.462;11.054;2022-07-05T00:45:36;98232.78;;;21.90;61.38
19447;BME280;9862;49.462;11.054;2022-07-05T00:48:03;98230.06;;;21.90;61.64
19447;BME280;9862;49.462;11.054;2022-07-05T00:50:30;98233.06;;;21.89;62.56
19447;BME280;9862;49.462;11.054;2022-07-05T00:52:56;98232.53;;;21.92;62.83
19447;BME280;9862;49.462;11.054;2022-07-05T00:55:23;98237.91;;;21.97;62.48
19447;BME280;9862;49.462;11.054;2022-07-05T00:57:50;98225.97;;;21.98;62.92
19447;BME280;9862;49.462;11.054;2022-07-05T01:00:17;98228.72;;;21.93;63.38
19447;BME280;9862;49.462;11.054;2022-07-05T01:02:45;98231.41;;;21.98;63.58
19447;BME280;9862;49.462;11.054;2022-07-05T01:05:12;98230.34;;;21.94;64.43
19447;BME280;9862;49.462;11.054;2022-07-05T01:07:39;98233.63;;;21.86;64.84
19447;BME280;9862;49.462;11.054;2022-07-05T01:10:06;98234.19;;;21.83;65.69
19447;BME280;9862;49.462;11.054;2022-07-05T01:12:33;98230.38;;;21.84;65.94
19447;BME280;9862;49.462;11.054;2022-07-05T01:15:00;98225.25;;;21.82;66.78
19447;BME280;9862;49.462;11.054;2022-07-05T01:17:27;98232.28;;;21.83;66.88
19447;BME280;9862;49.462;11.054;2022-07-05T01:19:55;98226.59;;;21.80;66.93
19447;BME280;9862;49.462;11.054;2022-07-05T01:22:25;98231.75;;;21.76;67.20
19447;BME280;9862;49.462;11.054;2022-07-05T01:24:54;98227.72;;;21.74;68.08
19447;BME280;9862;49.462;11.054;2022-07-05T01:27:21;98228.81;;;21.73;68.61
19447;BME280;9862;49.462;11.054;2022-07-05T01:29:48;98233.94;;;21.74;69.28
19447;BME280;9862;49.462;11.054;2022-07-05T01:32:14;98232.03;;;21.69;69.37
19447;BME280;9862;49.462;11.054;2022-07-05T01:34:42;98227.19;;;21.61;70.33
19447;BME280;9862;49.462;11.054;2022-07-05T01:37:09;98226.38;;;21.61;71.15
19447;BME280;9862;49.462;11.054;2022-07-05T01:39:36;98223.44;;;21.52;71.30
19447;BME280;9862;49.462;11.054;2022-07-05T01:42:05;98223.72;;;21.46;71.75
19447;BME280;9862;49.462;11.054;2022-07-05T01:44:32;98221.28;;;21.44;72.04
19447;BME280;9862;49.462;11.054;2022-07-05T01:47:03;98231.03;;;21.40;72.41
19447;BME280;9862;49.462;11.054;2022-07-05T01:49:34;98234.56;;;21.35;73.01
19447;BME280;9862;49.462;11.054;2022-07-05T01:52:07;98223.19;;;21.38;72.02
19447;BME280;9862;49.462;11.054;2022-07-05T01:54:34;98227.78;;;21.38;73.26
19447;BME280;9862;49.462;11.054;2022-07-05T01:57:01;98229.41;;;21.39;73.08
19447;BME280;9862;49.462;11.054;2022-07-05T01:59:31;98231.03;;;21.20;74.08
19447;BME280;9862;49.462;11.054;2022-07-05T02:01:58;98236.72;;;21.13;75.63
19447;BME280;9862;49.462;11.054;2022-07-05T02:04:26;98236.19;;;21.16;75.69
19447;BME280;9862;49.462;11.054;2022-07-05T02:06:52;98238.63;;;21.18;75.82
19447;BME280;9862;49.462;11.054;2022-07-05T02:09:19;98242.41;;;21.17;75.96
19447;BME280;9862;49.462;11.054;2022-07-05T02:11:46;98235.09;;;21.12;76.99
19447;BME280;9862;49.462;11.054;2022-07-05T02:14:12;98229.69;;;21.12;76.70
19447;BME280;9862;49.462;11.054;2022-07-05T02:16:40;98231.03;;;21.09;76.73
19447;BME280;9862;49.462;11.054;2022-07-05T02:19:07;98230.50;;;21.12;76.92
19447;BME280;9862;49.462;11.054;2022-07-05T02:21:34;98231.03;;;21.09;77.09
19447;BME280;9862;49.462;11.054;2022-07-05T02:24:01;98228.59;;;21.03;77.83
19447;BME280;9862;49.462;11.054;2022-07-05T02:26:27;98238.09;;;21.00;78.03
19447;BME280;9862;49.462;11.054;2022-07-05T02:28:54;98230.78;;;21.06;78.00
19447;BME280;9862;49.462;11.054;2022-07-05T02:31:21;98241.31;;;21.02;78.73
19447;BME280;9862;49.462;11.054;2022-07-05T02:33:49;98240.78;;;21.00;78.69
19447;BME280;9862;49.462;11.054;2022-07-05T02:36:17;98242.94;;;20.93;80.27
19447;BME280;9862;49.462;11.054;2022-07-05T02:38:44;98242.94;;;20.93;80.52
19447;BME280;9862;49.462;11.054;2022-07-05T02:41:11;98242.94;;;20.93;79.84
19447;BME280;9862;49.462;11.054;2022-07-05T02:43:38;98242.16;;;20.88;81.00
19447;BME280;9862;49.462;11.054;2022-07-05T02:46:07;98241.88;;;20.89;81.81
19447;BME280;9862;49.462;11.054;2022-07-05T02:48:35;98239.19;;;20.94;81.08
19447;BME280;9862;49.462;11.054;2022-07-05T02:51:04;98241.63;;;20.96;81.83
19447;BME280;9862;49.462;11.054;2022-07-05T02:53:31;98234.31;;;20.96;82.35
19447;BME280;9862;49.462;11.054;2022-07-05T02:55:57;98242.94;;;21.03;81.66
19447;BME280;9862;49.462;11.054;2022-07-05T02:58:24;98236.72;;;21.08;81.67
19447;BME280;9862;49.462;11.054;2022-07-05T03:00:51;98237.25;;;21.10;80.95
19447;BME280;9862;49.462;11.054;2022-07-05T03:03:18;98247.84;;;21.06;79.78
19447;BME280;9862;49.462;11.054;2022-07-05T03:05:44;98246.72;;;21.02;79.77
19447;BME280;9862;49.462;11.054;2022-07-05T03:08:12;98244.03;;;21.07;79.18
19447;BME280;9862;49.462;11.054;2022-07-05T03:10:39;98253.78;;;21.03;80.12
19447;BME280;9862;49.462;11.054;2022-07-05T03:13:05;98251.34;;;20.92;81.48
19447;BME280;9862;49.462;11.054;2022-07-05T03:15:32;98260.81;;;20.79;83.60
19447;BME280;9862;49.462;11.054;2022-07-05T03:17:58;98252.94;;;20.67;84.33
19447;BME280;9862;49.462;11.054;2022-07-05T03:20:25;98264.56;;;20.63;85.30
19447;BME280;9862;49.462;11.054;2022-07-05T03:22:52;98255.63;;;20.62;85.12
19447;BME280;9862;49.462;11.054;2022-07-05T03:25:20;98266.19;;;20.64;84.83
19447;BME280;9862;49.462;11.054;2022-07-05T03:27:46;98265.66;;;20.67;84.46
19447;BME280;9862;49.462;11.054;2022-07-05T03:30:13;98273.50;;;20.68;84.72
19447;BME280;9862;49.462;11.054;2022-07-05T03:32:40;98278.38;;;20.66;84.86
19447;BME280;9862;49.462;11.054;2022-07-05T03:35:07;98287.31;;;20.67;85.41
19447;BME280;9862;49.462;11.054;2022-07-05T03:37:35;98281.31;;;20.60;85.59
19447;BME280;9862;49.462;11.054;2022-07-05T03:40:02;98286.16;;;20.52;86.38
19447;BME280;9862;49.462;11.054;2022-07-05T03:42:30;98292.38;;;20.53;87.04
19447;BME280;9862;49.462;11.054;2022-07-05T03:44:57;98286.16;;;20.52;87.28
19447;BME280;9862;49.462;11.054;2022-07-05T03:47:24;98297.22;;;20.46;87.82
19447;BME280;9862;49.462;11.054;2022-07-05T03:49:50;98295.88;;;20.43;88.03
19447;BME280;9862;49.462;11.054;2022-07-05T03:52:17;98303.47;;;20.46;87.00
19447;BME280;9862;49.462;11.054;2022-07-05T03:54:43;98298.63;;;20.48;87.42
19447;BME280;9862;49.462;11.054;2022-07-05T03:57:11;98308.03;;;20.46;87.92
19447;BME280;9862;49.462;11.054;2022-07-05T03:59:39;98304.50;;;20.40;88.72
19447;BME280;9862;49.462;11.054;2022-07-05T04:02:06;98310.41;;;20.32;89.17
19447;BME280;9862;49.462;11.054;2022-07-05T04:04:33;98308.75;;;20.21;89.80
19447;BME280;9862;49.462;11.054;2022-07-05T04:07:00;98317.72;;;20.32;88.89
19447;BME280;9862;49.462;11.054;2022-07-05T04:09:26;98317.94;;;20.25;90.00
19447;BME280;9862;49.462;11.054;2022-07-05T04:11:53;98322.28;;;20.26;90.40
19447;BME280;9862;49.462;11.054;2022-07-05T04:14:20;98320.19;;;20.38;88.84
19447;BME280;9862;49.462;11.054;2022-07-05T04:16:48;98325.28;;;20.35;89.98
19447;BME280;9862;49.462;11.054;2022-07-05T04:19:14;98325.50;;;20.23;90.92
19447;BME280;9862;49.462;11.054;2022-07-05T04:21:41;98333.59;;;20.18;91.19
19447;BME280;9862;49.462;11.054;2022-07-05T04:24:08;98332.81;;;20.17;91.16
19447;BME280;9862;49.462;11.054;2022-07-05T04:26:37;98325.50;;;20.18;90.90
19447;BME280;9862;49.462;11.054;2022-07-05T04:29:04;98322.25;;;20.21;91.22
19447;BME280;9862;49.462;11.054;2022-07-05T04:31:30;98330.69;;;20.29;90.36
19447;BME280;9862;49.462;11.054;2022-07-05T04:33:58;98322.56;;;20.35;89.59
19447;BME280;9862;49.462;11.054;2022-07-05T04:36:25;98326.09;;;20.35;90.51
19447;BME280;9862;49.462;11.054;2022-07-05T04:38:51;98323.97;;;20.42;90.23
19447;BME280;9862;49.462;11.054;2022-07-05T04:41:18;98322.41;;;20.51;89.82
19447;BME280;9862;49.462;11.054;2022-07-05T04:43:45;98325.13;;;20.56;89.14
19447;BME280;9862;49.462;11.054;2022-07-05T04:46:13;98328.38;;;20.58;88.51
19447;BME280;9862;49.462;11.054;2022-07-05T04:48:39;98326.22;;;20.61;87.79
19447;BME280;9862;49.462;11.054;2022-07-05T04:51:07;98326.75;;;20.57;88.37
19447;BME280;9862;49.462;11.054;2022-07-05T04:53:34;98329.50;;;20.68;88.87
19447;BME280;9862;49.462;11.054;2022-07-05T04:56:00;98331.94;;;20.69;89.03
19447;BME280;9862;49.462;11.054;2022-07-05T04:58:27;98337.88;;;20.71;88.74
19447;BME280;9862;49.462;11.054;2022-07-05T05:00:54;98329.50;;;20.73;88.18
19447;BME280;9862;49.462;11.054;2022-07-05T05:03:20;98330.84;;;20.70;88.58
19447;BME280;9862;49.462;11.054;2022-07-05T05:05:47;98324.91;;;20.78;89.46
19447;BME280;9862;49.462;11.054;2022-07-05T05:08:15;98336.53;;;20.84;87.84
19447;BME280;9862;49.462;11.054;2022-07-05T05:10:41;98335.22;;;20.86;86.68
19447;BME280;9862;49.462;11.054;2022-07-05T05:13:08;98334.13;;;20.93;86.96
19447;BME280;9862;49.462;11.054;2022-07-05T05:15:35;98342.56;;;21.06;86.93
19447;BME280;9862;49.462;11.054;2022-07-05T05:18:01;98335.28;;;21.27;85.84
19447;BME280;9862;49.462;11.054;2022-07-05T05:20:28;98339.31;;;21.20;85.88
19447;BME280;9862;49.462;11.054;2022-07-05T05:22:55;98337.94;;;21.22;91.21
19447;BME280;9862;49.462;11.054;2022-07-05T05:25:23;98341.78;;;21.57;100.00
19447;BME280;9862;49.462;11.054;2022-07-05T05:27:52;98338.78;;;21.84;88.79
19447;BME280;9862;49.462;11.054;2022-07-05T05:30:19;98338.75;;;21.89;85.75
19447;BME280;9862;49.462;11.054;2022-07-05T05:32:46;98333.59;;;21.92;90.97
19447;BME280;9862;49.462;11.054;2022-07-05T05:35:13;98328.97;;;22.08;82.12
19447;BME280;9862;49.462;11.054;2022-07-05T05:37:48;98334.41;;;21.98;83.66
19447;BME280;9862;49.462;11.054;2022-07-05T05:40:15;98337.97;;;21.83;83.62
19447;BME280;9862;49.462;11.054;2022-07-05T05:42:43;98342.59;;;21.73;85.28
19447;BME280;9862;49.462;11.054;2022-07-05T05:45:13;98343.38;;;21.78;85.02
19447;BME280;9862;49.462;11.054;2022-07-05T05:47:44;98344.47;;;21.67;85.97
19447;BME280;9862;49.462;11.054;2022-07-05T05:50:11;98348.56;;;21.64;87.40
19447;BME280;9862;49.462;11.054;2022-07-05T05:52:38;98346.91;;;21.84;86.35
19447;BME280;9862;49.462;11.054;2022-07-05T05:55:05;98337.97;;;21.73;86.75
19447;BME280;9862;49.462;11.054;2022-07-05T05:57:33;98347.72;;;21.59;86.58
19447;BME280;9862;49.462;11.054;2022-07-05T06:00:02;98351.81;;;21.56;88.00
19447;BME280;9862;49.462;11.054;2022-07-05T06:02:29;98354.50;;;21.56;88.94
19447;BME280;9862;49.462;11.054;2022-07-05T06:04:56;98345.84;;;21.75;88.46
19447;BME280;9862;49.462;11.054;2022-07-05T06:07:23;98348.53;;;21.75;88.47
19447;BME280;9862;49.462;11.054;2022-07-05T06:09:49;98353.13;;;21.79;87.71
19447;BME280;9862;49.462;11.054;2022-07-05T06:12:16;98352.31;;;21.94;86.91
19447;BME280;9862;49.462;11.054;2022-07-05T06:14:43;98353.41;;;21.78;89.60
19447;BME280;9862;49.462;11.054;2022-07-05T06:17:11;98353.66;;;21.86;90.75
19447;BME280;9862;49.462;11.054;2022-07-05T06:19:37;98353.66;;;21.96;86.29
19447;BME280;9862;49.462;11.054;2022-07-05T06:22:04;98353.66;;;21.91;86.37
19447;BME280;9862;49.462;11.054;2022-07-05T06:24:31;98345.53;;;21.91;87.26
19447;BME280;9862;49.462;11.054;2022-07-05T06:26:59;98348.00;;;21.83;89.05
19447;BME280;9862;49.462;11.054;2022-07-05T06:29:25;98344.69;;;21.96;89.43
19447;BME280;9862;49.462;11.054;2022-07-05T06:31:52;98345.50;;;22.02;88.29
19447;BME280;9862;49.462;11.054;2022-07-05T06:34:20;98340.63;;;22.09;86.79
19447;BME280;9862;49.462;11.054;2022-07-05T06:36:46;98347.94;;;22.03;83.97
19447;BME280;9862;49.462;11.054;2022-07-05T06:39:13;98340.09;;;22.07;82.83
19447;BME280;9862;49.462;11.054;2022-07-05T06:41:40;98345.75;;;22.05;82.25
19447;BME280;9862;49.462;11.054;2022-07-05T06:44:07;98347.94;;;22.03;83.15
19447;BME280;9862;49.462;11.054;2022-07-05T06:46:33;98345.78;;;22.10;84.64
19447;BME280;9862;49.462;11.054;2022-07-05T06:49:00;98349.00;;;22.17;85.17
19447;BME280;9862;49.462;11.054;2022-07-05T06:51:28;98343.53;;;22.27;84.67
19447;BME280;9862;49.462;11.054;2022-07-05T06:53:55;98355.97;;;22.39;84.05
19447;BME280;9862;49.462;11.054;2022-07-05T06:56:22;98349.97;;;22.47;83.48
19447;BME280;9862;49.462;11.054;2022-07-05T06:58:48;98345.06;;;22.54;83.25
19447;BME280;9862;49.462;11.054;2022-07-05T07:01:15;98349.34;;;22.65;81.30
19447;BME280;9862;49.462;11.054;2022-07-05T07:03:41;98350.38;;;22.84;75.22
19447;BME280;9862;49.462;11.054;2022-07-05T07:06:08;98354.25;;;22.68;77.70
19447;BME280;9862;49.462;11.054;2022-07-05T07:08:36;98353.16;;;22.64;79.22
19447;BME280;9862;49.462;11.054;2022-07-05T07:11:20;98358.53;;;22.74;80.16
19447;BME280;9862;49.462;11.054;2022-07-05T07:13:47;98355.53;;;22.81;80.92
19447;BME280;9862;49.462;11.054;2022-07-05T07:16:13;98364.84;;;23.14;78.68
19447;BME280;9862;49.462;11.054;2022-07-05T07:18:40;98357.97;;;23.27;78.44
19447;BME280;9862;49.462;11.054;2022-07-05T07:21:07;98359.13;;;23.16;78.26
19447;BME280;9862;49.462;11.054;2022-07-05T07:23:33;98360.00;;;23.06;79.85
19447;BME280;9862;49.462;11.054;2022-07-05T07:26:02;98364.97;;;22.99;80.98
19447;BME280;9862;49.462;11.054;2022-07-05T07:28:29;98372.00;;;23.00;81.05
19447;BME280;9862;49.462;11.054;2022-07-05T07:30:56;98374.16;;;23.03;81.49
19447;BME280;9862;49.462;11.054;2022-07-05T07:33:23;98363.78;;;23.10;81.82
19447;BME280;9862;49.462;11.054;2022-07-05T07:35:49;98364.75;;;23.29;79.33
19447;BME280;9862;49.462;11.054;2022-07-05T07:38:16;98359.13;;;23.55;75.79
19447;BME280;9862;49.462;11.054;2022-07-05T07:40:43;98360.72;;;23.61;75.14
19447;BME280;9862;49.462;11.054;2022-07-05T07:43:13;98362.38;;;23.52;75.63
19447;BME280;9862;49.462;11.054;2022-07-05T07:45:41;98363.47;;;23.56;75.41
19447;BME280;9862;49.462;11.054;2022-07-05T07:48:08;98357.53;;;23.49;76.59
19447;BME280;9862;49.462;11.054;2022-07-05T07:50:34;98353.72;;;23.50;77.52
19447;BME280;9862;49.462;11.054;2022-07-05T07:53:01;98349.88;;;23.56;74.37
19447;BME280;9862;49.462;11.054;2022-07-05T07:55:28;98354.84;;;23.78;70.19
19447;BME280;9862;49.462;11.054;2022-07-05T07:57:55;98348.50;;;23.87;70.66
19447;BME280;9862;49.462;11.054;2022-07-05T08:00:23;98351.16;;;23.92;70.55
19447;BME280;9862;49.462;11.054;2022-07-05T08:02:50;98359.31;;;23.92;69.12
19447;BME280;9862;49.462;11.054;2022-07-05T08:05:17;98354.44;;;23.94;65.03
19447;BME280;9862;49.462;11.054;2022-07-05T08:07:43;98354.06;;;24.01;64.85
19447;BME280;9862;49.462;11.054;2022-07-05T08:10:10;98363.59;;;24.04;64.84
19447;BME280;9862;49.462;11.054;2022-07-05T08:12:37;98355.47;;;23.98;62.34
19447;BME280;9862;49.462;11.054;2022-07-05T08:15:04;98356.50;;;24.03;63.09
19447;BME280;9862;49.462;11.054;2022-07-05T08:17:34;98352.94;;;24.07;61.74
19447;BME280;9862;49.462;11.054;2022-07-05T08:20:01;98361.84;;;24.13;61.93
19447;BME280;9862;49.462;11.054;2022-07-05T08:22:45;98361.16;;;24.26;62.06
19447;BME280;9862;49.462;11.054;2022-07-05T08:25:12;98358.66;;;24.30;62.21
19447;BME280;9862;49.462;11.054;2022-07-05T08:27:39;98362.69;;;24.37;53.97
19447;BME280;9862;49.462;11.054;2022-07-05T08:30:07;98361.38;;;24.30;54.28
19447;BME280;9862;49.462;11.054;2022-07-05T08:32:36;98352.00;;;24.17;54.23
19447;BME280;9862;49.462;11.054;2022-07-05T08:35:03;98348.22;;;24.42;54.03
19447;BME280;9862;49.462;11.054;2022-07-05T08:37:30;98346.56;;;24.41;54.13
19447;BME280;9862;49.462;11.054;2022-07-05T08:39:57;98350.09;;;24.41;51.25
19447;BME280;9862;49.462;11.054;2022-07-05T08:42:24;98352.72;;;24.51;49.15
19447;BME280;9862;49.462;11.054;2022-07-05T08:44:52;98356.28;;;24.71;49.32
19447;BME280;9862;49.462;11.054;2022-07-05T08:47:22;98355.22;;;24.67;49.13
19447;BME280;9862;49.462;11.054;2022-07-05T08:49:51;98355.09;;;24.77;48.39
19447;BME280;9862;49.462;11.054;2022-07-05T08:52:19;98351.06;;;24.74;48.03
19447;BME280;9862;49.462;11.054;2022-07-05T08:54:47;98349.97;;;24.94;48.18
19447;BME280;9862;49.462;11.054;2022-07-05T08:57:14;98348.75;;;25.05;47.36
19447;BME280;9862;49.462;11.054;2022-07-05T08:59:41;98353.00;;;24.93;47.02
19447;BME280;9862;49.462;11.054;2022-07-05T09:02:11;98344.06;;;24.87;47.90
19447;BME280;9862;49.462;11.054;2022-07-05T09:04:44;98353.19;;;24.96;47.46
19447;BME280;9862;49.462;11.054;2022-07-05T09:07:15;98356.97;;;25.00;47.27
19447;BME280;9862;49.462;11.054;2022-07-05T09:09:43;98350.34;;;25.06;47.15
19447;BME280;9862;49.462;11.054;2022-07-05T09:12:13;98354.13;;;25.10;46.51
19447;BME280;9862;49.462;11.054;2022-07-05T09:14:40;98354.94;;;25.11;46.27
19447;BME280;9862;49.462;11.054;2022-07-05T09:17:07;98355.28;;;25.04;46.83
19447;BME280;9862;49.462;11.054;2022-07-05T09:19:33;98353.31;;;25.10;47.47
19447;BME280;9862;49.462;11.054;2022-07-05T09:22:02;98350.66;;;25.05;47.42
19447;BME280;9862;49.462;11.054;2022-07-05T09:24:31;98348.75;;;25.05;47.55
19447;BME280;9862;49.462;11.054;2022-07-05T09:27:04;98352.22;;;25.11;48.15
19447;BME280;9862;49.462;11.054;2022-07-05T09:29:31;98352.34;;;25.20;47.82
19447;BME280;9862;49.462;11.054;2022-07-05T09:31:58;98346.94;;;25.33;47.36
19447;BME280;9862;49.462;11.054;2022-07-05T09:34:25;98354.22;;;25.38;46.76
19447;BME280;9862;49.462;11.054;2022-07-05T09:36:54;98353.81;;;25.31;46.06
19447;BME280;9862;49.462;11.054;2022-07-05T09:39:39;98357.25;;;25.36;46.60
19447;BME280;9862;49.462;11.054;2022-07-05T09:42:14;98361.47;;;25.29;46.07
19447;BME280;9862;49.462;11.054;2022-07-05T09:44:43;98355.75;;;25.11;46.94
19447;BME280;9862;49.462;11.054;2022-07-05T09:47:12;98360.63;;;25.28;47.32
19447;BME280;9862;49.462;11.054;2022-07-05T09:49:42;98357.47;;;25.40;46.08
19447;BME280;9862;49.462;11.054;2022-07-05T09:52:09;98361.56;;;25.56;46.35
19447;BME280;9862;49.462;11.054;2022-07-05T09:54:37;98355.34;;;25.69;45.96
19447;BME280;9862;49.462;11.054;2022-07-05T09:57:04;98353.47;;;25.51;45.17
19447;BME280;9862;49.462;11.054;2022-07-05T09:59:31;98348.88;;;25.33;46.06
19447;BME280;9862;49.462;11.054;2022-07-05T10:01:58;98362.56;;;25.09;46.39
19447;BME280;9862;49.462;11.054;2022-07-05T10:04:24;98365.06;;;25.24;45.79
19447;BME280;9862;49.462;11.054;2022-07-05T10:06:51;98362.19;;;25.34;45.27
19447;BME280;9862;49.462;11.054;2022-07-05T10:09:17;98360.72;;;25.42;44.53
19447;BME280;9862;49.462;11.054;2022-07-05T10:11:46;98361.94;;;25.50;44.57
19447;BME280;9862;49.462;11.054;2022-07-05T10:14:18;98355.88;;;25.39;44.11
19447;BME280;9862;49.462;11.054;2022-07-05T10:16:47;98359.25;;;25.63;44.48
19447;BME280;9862;49.462;11.054;2022-07-05T10:19:21;98348.72;;;25.76;43.42
19447;BME280;9862;49.462;11.054;2022-07-05T10:21:49;98349.00;;;25.74;42.28
19447;BME280;9862;49.462;11.054;2022-07-05T10:24:16;98354.09;;;25.81;41.75
19447;BME280;9862;49.462;11.054;2022-07-05T10:26:45;98364.06;;;25.72;42.17
19447;BME280;9862;49.462;11.054;2022-07-05T10:29:19;98355.41;;;25.83;41.58
19447;BME280;9862;49.462;11.054;2022-07-05T10:31:46;98343.69;;;25.83;42.65
19447;BME280;9862;49.462;11.054;2022-07-05T10:34:13;98350.16;;;25.87;43.02
19447;BME280;9862;49.462;11.054;2022-07-05T10:36:40;98340.06;;;26.01;43.28
19447;BME280;9862;49.462;11.054;2022-07-05T10:39:09;98338.06;;;26.07;42.44
19447;BME280;9862;49.462;11.054;2022-07-05T10:41:37;98344.13;;;26.31;42.79
19447;BME280;9862;49.462;11.054;2022-07-05T10:44:06;98342.94;;;26.37;42.73
19447;BME280;9862;49.462;11.054;2022-07-05T10:46:37;98347.78;;;26.40;42.25
19447;BME280;9862;49.462;11.054;2022-07-05T10:49:13;98351.41;;;26.36;42.83
19447;BME280;9862;49.462;11.054;2022-07-05T10:51:40;98353.25;;;26.27;42.94
19447;BME280;9862;49.462;11.054;2022-07-05T10:54:07;98347.44;;;26.14;43.62
19447;BME280;9862;49.462;11.054;2022-07-05T10:56:34;98358.84;;;26.03;43.57
19447;BME280;9862;49.462;11.054;2022-07-05T10:59:08;98365.19;;;25.84;44.14
19447;BME280;9862;49.462;11.054;2022-07-05T11:01:38;98361.34;;;25.85;44.04
19447;BME280;9862;49.462;11.054;2022-07-05T11:04:24;98357.25;;;25.88;44.07
19447;BME280;9862;49.462;11.054;2022-07-05T11:06:53;98351.78;;;26.02;44.68
19447;BME280;9862;49.462;11.054;2022-07-05T11:09:20;98353.03;;;26.09;42.70
19447;BME280;9862;49.462;11.054;2022-07-05T11:12:01;98358.47;;;26.23;43.17
19447;BME280;9862;49.462;11.054;2022-07-05T11:14:35;98343.13;;;26.41;41.83
19447;BME280;9862;49.462;11.054;2022-07-05T11:17:20;98334.00;;;26.32;41.59
19447;BME280;9862;49.462;11.054;2022-07-05T11:20:05;98342.13;;;26.37;40.24
19447;BME280;9862;49.462;11.054;2022-07-05T11:22:33;98346.97;;;26.26;40.62
19447;BME280;9862;49.462;11.054;2022-07-05T11:25:00;98344.09;;;26.04;41.60
19447;BME280;9862;49.462;11.054;2022-07-05T11:27:27;98340.38;;;26.13;42.24
19447;BME280;9862;49.462;11.054;2022-07-05T11:29:56;98344.34;;;26.07;42.18
19447;BME280;9862;49.462;11.054;2022-07-05T11:32:34;98334.81;;;26.05;41.35
19447;BME280;9862;49.462;11.054;2022-07-05T11:35:12;98337.84;;;26.03;40.38
19447;BME280;9862;49.462;11.054;2022-07-05T11:37:58;98334.41;;;26.11;40.68
19447;BME280;9862;49.462;11.054;2022-07-05T11:40:28;98333.03;;;26.41;40.68
19447;BME280;9862;49.462;11.054;2022-07-05T11:42:55;98323.22;;;26.54;40.03
19447;BME280;9862;49.462;11.054;2022-07-05T11:45:23;98325.44;;;26.66;40.10
19447;BME280;9862;49.462;11.054;2022-07-05T11:47:53;98319.25;;;26.60;40.10
19447;BME280;9862;49.462;11.054;2022-07-05T11:50:29;98317.78;;;26.54;40.02
19447;BME280;9862;49.462;11.054;2022-07-05T11:52:57;98317.25;;;26.52;40.40
19447;BME280;9862;49.462;11.054;2022-07-05T11:55:26;98320.66;;;26.71;39.67
19447;BME280;9862;49.462;11.054;2022-07-05T11:57:54;98316.38;;;26.79;39.57
19447;BME280;9862;49.462;11.054;2022-07-05T12:00:31;98315.91;;;26.99;38.54
19447;BME280;9862;49.462;11.054;2022-07-05T12:02:58;98313.56;;;26.84;39.33
19447;BME280;9862;49.462;11.054;2022-07-05T12:05:30;98323.91;;;26.73;40.25
19447;BME280;9862;49.462;11.054;2022-07-05T12:07:57;98310.63;;;26.80;39.41
19447;BME280;9862;49.462;11.054;2022-07-05T12:10:23;98309.16;;;26.97;38.70
19447;BME280;9862;49.462;11.054;2022-07-05T12:13:08;98304.59;;;27.06;38.53
19447;BME280;9862;49.462;11.054;2022-07-05T12:15:37;98304.75;;;27.23;38.30
19447;BME280;9862;49.462;11.054;2022-07-05T12:18:05;98305.06;;;27.22;38.05
19447;BME280;9862;49.462;11.054;2022-07-05T12:20:35;98309.81;;;27.16;38.30
19447;BME280;9862;49.462;11.054;2022-07-05T12:23:02;98303.13;;;27.22;38.37
19447;BME280;9862;49.462;11.054;2022-07-05T12:25:30;98302.66;;;27.29;38.16
19447;BME280;9862;49.462;11.054;2022-07-05T12:27:58;98310.69;;;27.25;37.80
19447;BME280;9862;49.462;11.054;2022-07-05T12:30:28;98306.47;;;27.19;38.03
19447;BME280;9862;49.462;11.054;2022-07-05T12:32:59;98306.22;;;27.07;38.34
19447;BME280;9862;49.462;11.054;2022-07-05T12:35:32;98302.25;;;27.13;38.26
19447;BME280;9862;49.462;11.054;2022-07-05T12:38:08;98308.94;;;27.29;38.36
19447;BME280;9862;49.462;11.054;2022-07-05T12:40:37;98306.53;;;27.28;38.45
19447;BME280;9862;49.462;11.054;2022-07-05T12:43:06;98302.97;;;27.50;37.83
19447;BME280;9862;49.462;11.054;2022-07-05T12:45:37;98295.28;;;27.52;37.92
19447;BME280;9862;49.462;11.054;2022-07-05T12:48:06;98288.22;;;27.82;37.55
19447;BME280;9862;49.462;11.054;2022-07-05T12:50:48;98287.91;;;27.83;36.93
19447;BME280;9862;49.462;11.054;2022-07-05T12:53:15;98284.00;;;27.76;37.18
19447;BME280;9862;49.462;11.054;2022-07-05T12:56:00;98287.91;;;27.83;37.00
19447;BME280;9862;49.462;11.054;2022-07-05T12:58:48;98286.56;;;28.12;36.16
19447;BME280;9862;49.462;11.054;2022-07-05T13:01:24;98282.50;;;28.01;35.99
19447;BME280;9862;49.462;11.054;2022-07-05T13:04:04;98282.69;;;28.13;36.58
19447;BME280;9862;49.462;11.054;2022-07-05T13:06:46;98291.84;;;28.08;36.09